Time;durP1;ratioP1;P1;durP2;ratioP2;P2;SDS_P1;SDS_P2;PMS_P1;PMS_P2;Temp;Humidity;BMP_temperature;BMP_pressure;BME280_temperature;BME280_humidity;BME280_pressure;Samples;Min_cycle;Max_cycle;Signal;HPM_P1;HPM_P2
2024/03/04 00:02:57;;;;;;;29.40;14.70;;;;;;;8.65;77.56;99955.14;681879;1262;139168;-80
2024/03/04 00:18:01;;;;;;;28.80;13.30;;;;;;;8.59;78.24;99953.02;681598;1265;139253;-80
2024/03/04 00:33:05;;;;;;;27.80;12.80;;;;;;;8.43;77.67;99939.99;681778;1262;139782;-80
2024/03/04 00:48:08;;;;;;;20.40;12.80;;;;;;;8.30;77.79;99944.94;681587;1269;141201;-80
2024/03/04 01:03:11;;;;;;;24.10;12.00;;;;;;;8.00;77.08;99936.44;681754;1265;139407;-80
2024/03/04 01:18:16;;;;;;;28.10;12.20;;;;;;;7.68;76.70;99933.80;681579;1265;138772;-80
2024/03/04 01:33:20;;;;;;;28.50;11.90;;;;;;;7.31;76.98;99930.88;681673;1261;138787;-80
2024/03/04 01:48:23;;;;;;;33.60;14.60;;;;;;;6.99;76.84;99928.33;681575;1265;139085;-80
2024/03/04 02:03:31;;;;;;;29.40;13.20;;;;;;;6.76;76.57;99931.20;681709;1265;138498;-80
2024/03/04 02:18:35;;;;;;;27.40;13.50;;;;;;;6.43;76.19;99925.33;681604;1265;138580;-80
2024/03/04 02:33:43;;;;;;;27.20;14.70;;;;;;;6.21;76.31;99936.74;681637;1266;139216;-80
2024/03/04 02:48:49;;;;;;;29.40;14.10;;;;;;;5.93;76.98;99943.48;681628;1267;139074;-79
2024/03/04 03:03:52;;;;;;;30.60;14.70;;;;;;;5.77;77.44;99945.71;681750;1265;138686;-78
2024/03/04 03:18:57;;;;;;;27.10;13.60;;;;;;;5.52;76.98;99951.12;681720;1276;139100;-78
2024/03/04 03:34:00;;;;;;;28.00;12.80;;;;;;;5.67;76.92;99953.20;681548;1267;139392;-78
2024/03/04 03:49:04;;;;;;;36.90;13.80;;;;;;;5.74;76.49;99961.20;681541;1263;200601;-78
2024/03/04 04:04:07;;;;;;;30.30;14.40;;;;;;;5.68;77.05;99967.00;681888;1265;138483;-78
2024/03/04 04:19:11;;;;;;;30.50;15.30;;;;;;;5.76;76.56;99974.70;681792;1267;138697;-78
2024/03/04 04:34:15;;;;;;;31.00;16.10;;;;;;;5.85;77.04;99987.81;681626;1265;140452;-78
2024/03/04 04:49:19;;;;;;;34.30;16.30;;;;;;;6.03;77.40;99988.59;681545;1268;139970;-78
2024/03/04 05:04:22;;;;;;;37.00;17.90;;;;;;;5.60;77.13;99998.23;681491;1266;138556;-79
2024/03/04 05:19:47;;;;;;;27.30;13.60;;;;;;;5.34;77.08;100013.76;681610;1266;138798;-78
2024/03/04 05:34:50;;;;;;;38.00;18.70;;;;;;;5.21;77.04;100027.23;681461;1265;139732;-79
2024/03/04 05:49:54;;;;;;;285.60;108.90;;;;;;;5.22;76.97;100033.19;681592;1263;139827;-78
2024/03/04 06:04:57;;;;;;;29.80;16.00;;;;;;;5.07;77.18;100038.86;681487;1268;139840;-79
2024/03/04 06:20:03;;;;;;;31.00;14.60;;;;;;;5.10;77.89;100049.77;681774;1266;139147;-80
2024/03/04 06:35:06;;;;;;;32.10;15.70;;;;;;;5.63;77.72;100057.06;681661;1265;138907;-79
2024/03/04 06:50:10;;;;;;;36.50;16.20;;;;;;;7.09;77.87;100055.80;681645;1266;138765;-80
2024/03/04 07:05:14;;;;;;;39.90;18.40;;;;;;;8.75;75.60;100059.58;681700;1266;139688;-81
2024/03/04 07:20:20;;;;;;;30.60;15.90;;;;;;;10.05;72.84;100067.23;681832;1265;138666;-80
2024/03/04 07:35:28;;;;;;;20.50;12.40;;;;;;;8.56;70.81;100074.31;681639;1265;138986;-79
2024/03/04 07:50:32;;;;;;;54.20;27.60;;;;;;;7.50;72.44;100078.16;681558;1266;139047;-79
2024/03/04 08:05:43;;;;;;;35.20;17.00;;;;;;;9.05;73.55;100084.44;655006;1301;545191;-80
2024/03/04 08:20:48;;;;;;;19.90;11.00;;;;;;;12.02;69.87;100092.61;673696;1275;139975;-80
2024/03/04 08:35:51;;;;;;;21.90;12.00;;;;;;;12.29;66.22;100107.17;672298;1274;140118;-80
2024/03/04 08:50:54;;;;;;;64.10;23.40;;;;;;;11.32;64.64;100116.33;671346;1271;138524;-80
2024/03/04 09:05:58;;;;;;;20.80;12.00;;;;;;;10.10;66.10;100115.36;675396;1275;140007;-80
2024/03/04 09:21:03;;;;;;;18.20;9.30;;;;;;;11.88;67.18;100108.55;667926;1275;140224;-80
2024/03/04 09:36:06;;;;;;;22.20;10.40;;;;;;;14.01;65.32;100103.85;672223;1272;140014;-80
2024/03/04 09:51:09;;;;;;;45.90;18.90;;;;;;;13.86;62.14;100111.42;672643;1280;138723;-80
2024/03/04 10:06:13;;;;;;;103.90;35.90;;;;;;;13.51;62.31;100122.26;673044;1274;140703;-80
2024/03/04 10:21:17;;;;;;;190.80;74.70;;;;;;;12.11;63.11;100121.02;674303;1271;139282;-81
2024/03/04 10:36:21;;;;;;;206.30;89.40;;;;;;;12.09;63.86;100117.75;676493;1271;139576;-80
2024/03/04 10:51:28;;;;;;;63.10;30.30;;;;;;;12.16;64.33;100117.77;676102;1268;139847;-80
2024/03/04 11:06:35;;;;;;;28.00;12.60;;;;;;;12.82;63.91;100115.85;677495;1270;139066;-80
2024/03/04 11:21:44;;;;;;;32.90;16.90;;;;;;;13.14;63.69;100111.79;677829;1271;140636;-80
2024/03/04 11:36:50;;;;;;;43.50;21.90;;;;;;;11.78;63.78;100116.58;676564;1269;139936;-79
2024/03/04 11:51:57;;;;;;;32.60;17.80;;;;;;;11.10;65.17;100120.09;676811;1269;139433;-79
2024/03/04 12:07:05;;;;;;;63.60;27.80;;;;;;;11.19;65.45;100123.23;677275;1264;139948;-79
2024/03/04 12:22:08;;;;;;;40.90;19.40;;;;;;;11.07;65.73;100119.91;675048;1281;139952;-79
2024/03/04 12:37:24;;;;;;;35.30;18.40;;;;;;;10.79;66.32;100112.72;673279;1268;140595;-80
2024/03/04 12:52:45;;;;;;;40.90;19.60;;;;;;;10.84;66.10;100102.99;675339;1268;139452;-80
2024/03/04 13:07:52;;;;;;;42.50;21.50;;;;;;;11.04;65.58;100095.06;672660;1268;139186;-79
2024/03/04 13:22:58;;;;;;;37.20;19.50;;;;;;;10.90;66.09;100098.67;674953;1265;138973;-79
2024/03/04 13:38:03;;;;;;;35.30;17.40;;;;;;;10.78;66.47;100104.63;673557;1265;139067;-79
2024/03/04 13:53:09;;;;;;;62.60;31.20;;;;;;;10.92;66.52;100108.20;674007;1265;139336;-79
2024/03/04 14:08:13;;;;;;;36.60;18.90;;;;;;;10.71;66.10;100115.02;675906;1265;139432;-79
2024/03/04 14:23:22;;;;;;;52.70;23.20;;;;;;;10.10;66.22;100128.63;676283;1265;139075;-78
2024/03/04 14:38:27;;;;;;;51.20;24.20;;;;;;;10.21;66.07;100123.38;680339;1272;139842;-79
2024/03/04 14:53:30;;;;;;;46.60;21.60;;;;;;;10.23;66.27;100126.11;677680;1266;139573;-79
2024/03/04 15:08:37;;;;;;;104.20;47.70;;;;;;;10.13;66.37;100118.29;676841;1265;140687;-78
2024/03/04 15:23:46;;;;;;;55.60;30.40;;;;;;;9.99;66.48;100112.86;676824;1267;139906;-78
2024/03/04 15:38:54;;;;;;;97.00;41.80;;;;;;;9.65;66.44;100113.73;673348;1267;139187;-78
2024/03/04 15:53:58;;;;;;;120.40;48.20;;;;;;;9.58;66.85;100123.08;672711;1268;139951;-79
2024/03/04 16:09:03;;;;;;;355.50;123.80;;;;;;;9.40;67.76;100132.10;674127;1268;139661;-80
2024/03/04 16:24:07;;;;;;;361.80;187.60;;;;;;;9.30;68.50;100144.42;675727;1266;140437;-80
2024/03/04 16:39:13;;;;;;;95.80;40.60;;;;;;;9.26;68.54;100161.73;671260;1277;140287;-79
2024/03/04 16:54:21;;;;;;;339.10;134.40;;;;;;;9.22;68.48;100169.19;676820;1265;139874;-78
2024/03/04 17:09:28;;;;;;;;;;;;;;;9.10;68.84;100172.11;673256;1266;139608;-78
2024/03/04 17:24:32;;;;;;;470.60;182.90;;;;;;;8.90;68.99;100177.30;673089;1266;126695;-78
2024/03/04 17:39:37;;;;;;;118.70;46.50;;;;;;;8.77;68.68;100181.27;676679;1265;139596;-80
2024/03/04 17:54:41;;;;;;;230.20;78.40;;;;;;;8.62;68.73;100182.73;676662;1269;140502;-79
2024/03/04 18:09:45;;;;;;;352.80;101.60;;;;;;;8.51;68.91;100192.83;673701;1262;139792;-79
2024/03/04 18:24:49;;;;;;;197.50;71.60;;;;;;;8.41;68.85;100200.74;674627;1267;140462;-79
2024/03/04 18:39:52;;;;;;;77.20;34.20;;;;;;;8.40;68.54;100206.54;673022;1269;139666;-79
2024/03/04 18:54:57;;;;;;;90.30;37.90;;;;;;;8.31;68.81;100207.96;676355;1276;140035;-80
2024/03/04 19:10:03;;;;;;;56.90;25.30;;;;;;;8.24;69.07;100208.83;678120;1266;139991;-79
2024/03/04 19:25:09;;;;;;;71.10;31.60;;;;;;;8.10;69.02;100205.96;675733;1266;140209;-80
2024/03/04 19:40:13;;;;;;;90.20;34.30;;;;;;;7.87;69.30;100206.66;678720;1263;138993;-79
2024/03/04 19:55:18;;;;;;;94.60;35.90;;;;;;;7.61;69.52;100210.96;674831;1276;139468;-79
2024/03/04 20:10:22;;;;;;;54.00;24.00;;;;;;;7.59;69.86;100206.77;678423;1271;217727;-80
2024/03/04 20:25:25;;;;;;;70.40;29.40;;;;;;;7.65;70.07;100202.66;677008;1264;141456;-80
2024/03/04 20:40:33;;;;;;;112.70;44.60;;;;;;;7.68;70.20;100194.75;677891;1267;139854;-80
2024/03/04 20:55:55;;;;;;;102.60;41.70;;;;;;;7.71;70.60;100195.25;677823;1267;140125;-80
2024/03/04 21:11:10;;;;;;;69.70;29.20;;;;;;;7.68;70.95;100198.04;677122;1267;140175;-79
2024/03/04 21:26:14;;;;;;;80.20;31.90;;;;;;;7.72;71.24;100193.38;677256;1267;141830;-79
2024/03/04 21:41:20;;;;;;;100.60;38.90;;;;;;;7.78;71.23;100184.79;677109;1266;139125;-78
2024/03/04 21:56:25;;;;;;;88.90;38.50;;;;;;;7.79;71.39;100181.20;680068;1267;139574;-80
2024/03/04 22:11:29;;;;;;;56.80;25.20;;;;;;;7.68;71.42;100175.77;679994;1267;138981;-80
2024/03/04 22:26:33;;;;;;;57.10;24.10;;;;;;;7.68;71.68;100174.25;676174;1267;138961;-79
2024/03/04 22:41:45;;;;;;;64.30;27.20;;;;;;;7.78;71.93;100170.27;673634;1264;139242;-79
2024/03/04 22:56:50;;;;;;;44.00;19.50;;;;;;;7.78;71.76;100169.94;673664;1267;139754;-79
2024/03/04 23:11:54;;;;;;;55.30;24.00;;;;;;;7.74;71.91;100167.98;673066;1266;140470;-80
2024/03/04 23:26:59;;;;;;;38.70;19.90;;;;;;;7.76;71.83;100169.42;677127;1277;139899;-78
2024/03/04 23:42:04;;;;;;;34.50;15.70;;;;;;;7.65;71.83;100172.16;674430;1266;140735;-78
2024/03/04 23:57:08;;;;;;;46.20;21.20;;;;;;;7.66;71.98;100170.38;672804;1263;139764;-78
